CheckWX is a tool to help pilots better visualize weather data.  It is not intended as a substitute for an official pre-flight weather briefing.

09:56:15 UTC

HTTB METAR
Tabora Airport
Tabora, Tanzania
Current

56 mins ago

HTTB 040900Z 17015KT CAVOK 23/12 Q1019 NOSIG
Observed
Jul-4 @ 09:00 UTC
Wind
  • 170° at 15 KTS
Visibility
10,000+ meters
Flight Rules
VFR
Cloud Levels
  • Clear skies
Temperature
23°C / 73°F
Dewpoint
12°C / 54°F
Humidity
50%
Altimeter
30.09" Hg
Pressure
1018.92 hPa
Previous

4 hours ago

HTTB 040600Z 16010KT CAVOK 18/11 Q1020 NOSIG
Observed
Jul-4 @ 06:00 UTC
Wind
  • 160° at 10 KTS
Visibility
10,000+ meters
Flight Rules
VFR
Cloud Levels
  • Clear skies
Temperature
18°C / 64°F
Dewpoint
11°C / 52°F
Humidity
64%
Altimeter
30.12" Hg
Pressure
1019.92 hPa
Previous

5 hours ago

HTTB 040500Z 15008KT CAVOK 16/12 Q1019 NOSIG
Observed
Jul-4 @ 05:00 UTC
Wind
  • 150° at 8 KTS
Visibility
10,000+ meters
Flight Rules
VFR
Cloud Levels
  • Clear skies
Temperature
16°C / 61°F
Dewpoint
12°C / 54°F
Humidity
77%
Altimeter
30.09" Hg
Pressure
1018.92 hPa